Heilwood, Pennsylvania
Current Conditions -  °F | °C
As of 11:15 AM on Saturday 25 Oct 2014 (Local Time) from KIDI Reporting Station
Broken Clouds Broken Clouds  
Wind Chill: 55°   Ceiling: 2000
Heat Index: 55°   Visibility: 10mi
Dew Point: 46°   Wind: 10mph
Humidity: 72%   Direction: 250°WSW
Pressure: 29.93"   Gusts: NA
Location:  40.62°N, 78.92°W
Report Text: KIDI 251515Z AUTO 25009KT 10SM BKN020 BKN033 13/08 A2993 RMK A01
Loading
Personal Weather Stations






























Interactive Weather Map
Tropical Storm Tracking
New forecast layout! Learn more

10-Day Weather Forecast

Advertisements
Track Severe Weather on mobile